createdAt,value
2019-06-01T00:02:35.024Z,17.30
2019-06-01T00:06:40.680Z,17.20
2019-06-01T00:10:45.332Z,17.20
2019-06-01T00:14:50.038Z,17.10
2019-06-01T00:18:54.618Z,17.10
2019-06-01T00:22:59.320Z,17.00
2019-06-01T00:27:03.883Z,16.90
2019-06-01T00:31:08.440Z,16.90
2019-06-01T00:35:12.996Z,16.80
2019-06-01T00:39:17.520Z,16.70
2019-06-01T00:43:22.083Z,16.70
2019-06-01T00:47:26.646Z,16.60
2019-06-01T00:51:31.297Z,16.60
2019-06-01T00:55:35.865Z,16.50
2019-06-01T00:59:40.421Z,16.40
2019-06-01T01:03:45.964Z,16.40
2019-06-01T01:07:51.491Z,16.30
2019-06-01T01:11:56.705Z,16.30
2019-06-01T01:16:01.279Z,16.20
2019-06-01T01:20:06.564Z,16.10
2019-06-01T01:28:23.954Z,16.00
2019-06-01T01:32:28.205Z,15.90
2019-06-01T01:36:33.659Z,15.80
2019-06-01T01:40:38.205Z,15.80
2019-06-01T01:44:42.758Z,15.70
2019-06-01T01:48:47.331Z,15.70
2019-06-01T01:52:52.734Z,15.60
2019-06-01T01:56:58.231Z,15.50
2019-06-01T02:01:20.746Z,15.40
2019-06-01T02:05:09.779Z,15.40
2019-06-01T02:09:14.344Z,15.30
2019-06-01T02:13:18.908Z,15.20
2019-06-01T02:17:23.468Z,15.10
2019-06-01T02:21:28.029Z,15.10
2019-06-01T02:25:32.691Z,15.00
2019-06-01T02:29:37.256Z,15.00
2019-06-01T02:33:41.830Z,15.00
2019-06-01T02:37:46.402Z,14.90
2019-06-01T02:41:50.970Z,14.90
2019-06-01T02:45:56.321Z,14.90
2019-06-01T02:50:01.381Z,14.80
2019-06-01T02:54:06.330Z,14.80
2019-06-01T02:58:11.023Z,14.70
2019-06-01T03:02:15.694Z,14.70
2019-06-01T03:06:20.848Z,14.70
2019-06-01T03:10:25.521Z,14.70
2019-06-01T03:14:31.610Z,14.60
2019-06-01T03:18:37.573Z,14.60
2019-06-01T03:22:43.469Z,14.50
2019-06-01T03:26:48.213Z,14.50
2019-06-01T03:30:52.777Z,14.50
2019-06-01T03:34:57.341Z,14.40
2019-06-01T03:39:03.946Z,14.30
2019-06-01T03:43:09.343Z,14.30
2019-06-01T03:47:14.009Z,14.30
2019-06-01T03:51:18.578Z,14.30
2019-06-01T03:55:23.140Z,14.30
2019-06-01T03:59:27.745Z,14.30
2019-06-01T04:03:32.366Z,14.40
2019-06-01T04:07:38.866Z,14.50
2019-06-01T04:11:43.107Z,14.50
2019-06-01T04:15:47.680Z,14.60
2019-06-01T04:19:52.241Z,14.70
2019-06-01T04:23:56.872Z,14.70
2019-06-01T04:28:02.105Z,14.80
2019-06-01T04:32:06.917Z,14.90
2019-06-01T04:36:11.501Z,14.90
2019-06-01T04:40:16.064Z,15.00
2019-06-01T04:44:20.627Z,15.10
2019-06-01T04:48:25.178Z,15.20
2019-06-01T04:52:29.693Z,15.50
2019-06-01T04:56:34.292Z,16.00
2019-06-01T05:00:38.869Z,16.60
2019-06-01T05:04:43.784Z,16.70
2019-06-01T05:08:48.354Z,17.00
2019-06-01T05:12:52.862Z,17.20
2019-06-01T05:16:57.431Z,17.40
2019-06-01T05:21:02.013Z,17.50
2019-06-01T05:25:08.811Z,17.60
2019-06-01T05:29:13.710Z,17.60
2019-06-01T05:33:35.294Z,17.60
2019-06-01T05:37:24.906Z,17.70
2019-06-01T05:41:29.504Z,17.70
2019-06-01T05:45:34.080Z,17.80
2019-06-01T05:49:38.648Z,17.80
2019-06-01T05:53:43.188Z,17.80
2019-06-01T05:57:47.792Z,17.90
2019-06-01T06:01:52.357Z,18.00
2019-06-01T06:05:56.944Z,18.20
2019-06-01T06:10:01.508Z,18.80
2019-06-01T06:14:06.153Z,19.30
2019-06-01T06:18:11.623Z,19.50
2019-06-01T06:22:16.300Z,19.70
2019-06-01T06:26:22.380Z,20.30
2019-06-01T06:30:27.108Z,20.90
2019-06-01T06:34:31.625Z,21.70
2019-06-01T06:38:36.189Z,22.80
2019-06-01T06:42:40.737Z,23.50
2019-06-01T06:46:45.296Z,24.00
2019-06-01T06:50:49.842Z,24.60
2019-06-01T06:54:54.373Z,25.40
2019-06-01T06:58:58.953Z,26.10
2019-06-01T07:03:03.516Z,26.80
2019-06-01T07:07:08.082Z,27.40
2019-06-01T07:11:12.649Z,27.90
2019-06-01T07:15:17.195Z,28.40
2019-06-01T07:19:21.764Z,28.60
2019-06-01T07:23:26.296Z,28.80
2019-06-01T07:27:30.848Z,29.10
2019-06-01T07:31:35.418Z,29.40
2019-06-01T07:35:39.938Z,29.70
2019-06-01T07:39:44.497Z,29.80
2019-06-01T07:43:49.069Z,29.90
2019-06-01T07:47:53.597Z,30.00
2019-06-01T07:51:58.182Z,30.20
2019-06-01T07:56:02.689Z,29.90
2019-06-01T08:00:07.626Z,30.00
2019-06-01T08:04:12.207Z,30.00
2019-06-01T08:08:16.788Z,29.90
2019-06-01T08:12:21.315Z,29.80
2019-06-01T08:16:25.983Z,29.90
2019-06-01T08:20:30.557Z,29.90
2019-06-01T08:24:35.128Z,30.00
2019-06-01T08:28:39.640Z,29.80
2019-06-01T08:32:44.192Z,29.70
2019-06-01T08:36:48.766Z,29.70
2019-06-01T08:40:53.306Z,29.70
2019-06-01T08:44:57.862Z,29.60
2019-06-01T08:49:02.369Z,29.30
2019-06-01T08:53:07.023Z,29.40
2019-06-01T08:57:11.558Z,29.30
2019-06-01T09:01:16.151Z,29.10
2019-06-01T09:05:24.338Z,29.00
2019-06-01T09:09:26.958Z,28.90
2019-06-01T09:13:31.538Z,28.80
2019-06-01T09:17:36.085Z,28.60
2019-06-01T09:21:40.648Z,28.40
2019-06-01T09:25:45.165Z,28.10
2019-06-01T09:29:49.728Z,27.60
2019-06-01T09:33:54.785Z,27.10
2019-06-01T09:37:59.329Z,26.70
2019-06-01T09:42:03.896Z,26.40
2019-06-01T09:46:08.420Z,26.10
2019-06-01T09:50:12.969Z,25.90
2019-06-01T09:54:17.580Z,25.80
2019-06-01T09:58:22.172Z,25.60
2019-06-01T10:02:27.919Z,25.40
2019-06-01T10:06:32.628Z,25.30
2019-06-01T10:10:38.084Z,25.10
2019-06-01T10:14:42.772Z,25.10
2019-06-01T10:18:47.333Z,25.00
2019-06-01T10:22:51.904Z,24.90
2019-06-01T10:26:56.441Z,24.90
2019-06-01T10:31:01.017Z,24.90
2019-06-01T10:35:05.907Z,24.90
2019-06-01T10:39:10.485Z,24.90
2019-06-01T10:43:15.109Z,24.90
2019-06-01T10:47:19.629Z,24.90
2019-06-01T10:51:24.520Z,24.90
2019-06-01T10:55:29.078Z,24.90
2019-06-01T10:59:34.291Z,25.00
2019-06-01T11:03:38.934Z,25.00
2019-06-01T11:07:43.451Z,25.00
2019-06-01T11:11:48.025Z,25.00
2019-06-01T11:15:52.584Z,24.90
2019-06-01T11:19:57.141Z,24.90
2019-06-01T11:24:01.739Z,24.90
2019-06-01T11:28:06.377Z,24.80
2019-06-01T11:32:10.905Z,24.80
2019-06-01T11:36:15.468Z,24.90
2019-06-01T11:40:20.033Z,25.00
2019-06-01T11:44:24.616Z,25.00
2019-06-01T11:48:29.211Z,25.20
2019-06-01T11:52:34.869Z,25.20
2019-06-01T11:56:39.502Z,25.30
2019-06-01T12:00:44.233Z,25.40
2019-06-01T12:04:48.788Z,25.60
2019-06-01T12:08:53.349Z,25.70
2019-06-01T12:12:57.916Z,25.80
2019-06-01T12:17:02.479Z,25.90
2019-06-01T12:21:08.415Z,26.00
2019-06-01T12:25:13.485Z,26.10
2019-06-01T12:29:18.057Z,26.20
2019-06-01T12:33:22.628Z,26.40
2019-06-01T12:37:45.415Z,26.50
2019-06-01T12:41:33.902Z,26.70
2019-06-01T12:45:39.588Z,26.80
2019-06-01T12:49:52.536Z,27.00
2019-06-01T12:53:58.548Z,27.10
2019-06-01T12:58:08.909Z,27.30
2019-06-01T13:02:13.545Z,27.40
2019-06-01T13:06:19.177Z,27.50
2019-06-01T13:10:23.769Z,27.60
2019-06-01T13:14:28.332Z,27.70
2019-06-01T13:18:32.901Z,27.80
2019-06-01T13:22:37.524Z,27.90
2019-06-01T13:26:43.634Z,28.00
2019-06-01T13:30:49.656Z,28.30
2019-06-01T13:34:54.584Z,28.30
2019-06-01T13:38:59.607Z,28.40
2019-06-01T13:43:04.160Z,28.50
2019-06-01T13:47:08.704Z,28.60
2019-06-01T13:51:13.265Z,28.70
2019-06-01T13:55:17.807Z,28.70
2019-06-01T13:59:22.365Z,28.80
2019-06-01T14:03:26.925Z,28.80
2019-06-01T14:07:31.481Z,28.90
2019-06-01T14:11:36.092Z,28.90
2019-06-01T14:15:40.728Z,29.00
2019-06-01T14:19:45.648Z,29.00
2019-06-01T14:23:50.413Z,29.10
2019-06-01T14:27:56.324Z,29.10
2019-06-01T14:32:01.069Z,29.10
2019-06-01T14:36:05.624Z,29.10
2019-06-01T14:40:10.305Z,29.20
2019-06-01T14:44:14.857Z,29.20
2019-06-01T14:48:19.423Z,29.20
2019-06-01T14:52:23.979Z,29.20
2019-06-01T14:56:28.564Z,29.30
2019-06-01T15:00:33.121Z,29.30
2019-06-01T15:04:37.691Z,29.40
2019-06-01T15:08:42.237Z,29.40
2019-06-01T15:12:52.481Z,29.50
2019-06-01T15:16:53.980Z,29.50
2019-06-01T15:20:58.644Z,29.50
2019-06-01T15:25:03.682Z,29.50
2019-06-01T15:29:08.453Z,29.50
2019-06-01T15:33:13.009Z,29.50
2019-06-01T15:37:17.605Z,29.50
2019-06-01T15:41:22.160Z,29.50
2019-06-01T15:45:26.716Z,29.50
2019-06-01T15:49:31.298Z,29.50
2019-06-01T15:53:35.858Z,29.40
2019-06-01T15:57:40.468Z,29.40
2019-06-01T16:01:45.007Z,29.50
2019-06-01T16:05:49.574Z,29.50
2019-06-01T16:09:55.330Z,29.50
2019-06-01T16:13:59.997Z,29.50
2019-06-01T16:18:04.682Z,29.50
2019-06-01T16:22:09.247Z,29.50
2019-06-01T16:26:16.347Z,29.50
2019-06-01T16:30:20.119Z,29.40
2019-06-01T16:34:24.699Z,29.40
2019-06-01T16:38:29.281Z,29.40
2019-06-01T16:42:33.828Z,29.40
2019-06-01T16:46:38.377Z,29.30
2019-06-01T16:50:42.956Z,29.30
2019-06-01T16:54:47.540Z,29.30
2019-06-01T16:58:52.156Z,29.30
2019-06-01T17:02:56.924Z,29.30
2019-06-01T17:07:05.009Z,29.20
2019-06-01T17:11:07.698Z,29.30
2019-06-01T17:15:14.203Z,29.20
2019-06-01T17:19:18.757Z,29.10
2019-06-01T17:23:27.479Z,29.10
2019-06-01T17:27:29.554Z,29.00
2019-06-01T17:31:34.077Z,29.00
2019-06-01T17:35:38.742Z,28.90
2019-06-01T17:39:43.329Z,28.90
2019-06-01T17:43:48.009Z,28.90
2019-06-01T17:47:52.529Z,28.90
2019-06-01T17:51:57.109Z,28.80
2019-06-01T17:56:01.916Z,28.80
2019-06-01T18:00:07.743Z,28.80
2019-06-01T18:04:12.360Z,28.70
2019-06-01T18:08:16.913Z,28.50
2019-06-01T18:12:21.449Z,28.40
2019-06-01T18:16:26.832Z,28.20
2019-06-01T18:20:31.814Z,28.10
2019-06-01T18:24:36.353Z,27.90
2019-06-01T18:28:40.855Z,27.80
2019-06-01T18:32:45.401Z,27.70
2019-06-01T18:36:49.960Z,27.60
2019-06-01T18:41:08.819Z,27.50
2019-06-01T18:45:00.907Z,27.40
2019-06-01T18:49:05.803Z,27.20
2019-06-01T18:53:10.386Z,27.10
2019-06-01T18:57:20.563Z,27.00
2019-06-01T19:01:21.419Z,26.80
2019-06-01T19:05:26.034Z,26.70
2019-06-01T19:09:30.611Z,26.60
2019-06-01T19:13:35.092Z,26.40
2019-06-01T19:17:39.663Z,26.20
2019-06-01T19:21:44.212Z,26.10
2019-06-01T19:25:50.002Z,25.90
2019-06-01T19:29:54.560Z,25.70
2019-06-01T19:33:59.112Z,25.60
2019-06-01T19:38:03.972Z,25.40
2019-06-01T19:42:09.168Z,25.20
2019-06-01T19:46:13.993Z,25.10
2019-06-01T19:50:18.560Z,24.90
2019-06-01T19:54:23.074Z,24.70
2019-06-01T19:58:27.664Z,24.60
2019-06-01T20:02:34.347Z,24.40
2019-06-01T20:06:38.432Z,24.20
2019-06-01T20:10:42.968Z,24.00
2019-06-01T20:14:47.520Z,23.90
2019-06-01T20:18:52.088Z,23.70
2019-06-01T20:22:56.666Z,23.60
2019-06-01T20:27:01.220Z,23.40
2019-06-01T20:31:05.736Z,23.30
2019-06-01T20:35:11.731Z,23.20
2019-06-01T20:39:16.460Z,23.10
2019-06-01T20:43:21.027Z,23.00
2019-06-01T20:47:25.580Z,22.90
2019-06-01T20:51:30.105Z,22.80
2019-06-01T20:55:34.663Z,22.70
2019-06-01T20:59:39.253Z,22.60
2019-06-01T21:03:43.920Z,22.50
2019-06-01T21:07:48.491Z,22.40
2019-06-01T21:15:56.940Z,22.20
2019-06-01T21:20:04.667Z,22.20
2019-06-01T21:24:07.741Z,22.10
2019-06-01T21:28:14.847Z,22.00
2019-06-01T21:32:19.249Z,21.90
2019-06-01T21:36:23.872Z,21.80
2019-06-01T21:40:28.431Z,21.80
2019-06-01T21:44:32.980Z,21.70
2019-06-01T21:48:37.546Z,21.60
2019-06-01T21:52:42.061Z,21.50
2019-06-01T21:56:46.624Z,21.50
2019-06-01T22:00:51.424Z,21.40
2019-06-01T22:04:55.981Z,21.30
2019-06-01T22:09:00.579Z,21.30
2019-06-01T22:13:18.048Z,21.20
2019-06-01T22:17:11.313Z,21.10
2019-06-01T22:21:15.866Z,21.10
2019-06-01T22:25:20.932Z,21.00
2019-06-01T22:29:26.691Z,20.90
2019-06-01T22:33:31.228Z,20.80
2019-06-01T22:37:35.800Z,20.70
2019-06-01T22:41:40.385Z,20.60
2019-06-01T22:45:44.940Z,20.50
2019-06-01T22:49:49.489Z,20.40
2019-06-01T22:53:54.134Z,20.30
2019-06-01T22:57:58.742Z,20.20
2019-06-01T23:02:03.305Z,20.10
2019-06-01T23:06:07.867Z,20.00
2019-06-01T23:10:12.417Z,19.90
2019-06-01T23:14:16.992Z,19.80
2019-06-01T23:18:21.762Z,19.70
2019-06-01T23:22:26.413Z,19.60
2019-06-01T23:26:32.264Z,19.50
2019-06-01T23:30:37.072Z,19.40
2019-06-01T23:34:41.608Z,19.40
2019-06-01T23:38:46.132Z,19.30
2019-06-01T23:42:50.697Z,19.20
2019-06-01T23:46:55.264Z,19.10
2019-06-01T23:50:59.857Z,19.00
2019-06-01T23:55:04.576Z,18.90
2019-06-01T23:59:09.157Z,18.90
